Time;durP1;ratioP1;P1;durP2;ratioP2;P2;SDS_P1;SDS_P2;PMS_P1;PMS_P2;Temp;Humidity;BMP_temperature;BMP_pressure;BME280_temperature;BME280_humidity;BME280_pressure;Samples;Min_cycle;Max_cycle;Signal;HPM_P1;HPM_P2
2022/05/17 00:02:05;;;;;;;6.65;4.00;;;17.40;99.90;;;;;;5054801;28;20251;-68
2022/05/17 00:04:32;;;;;;;6.70;3.80;;;17.40;99.90;;;;;;5053905;28;20080;-68
2022/05/17 00:06:58;;;;;;;8.10;3.38;;;17.40;99.90;;;;;;5054226;28;20025;-68
2022/05/17 00:09:24;;;;;;;;;;;17.40;99.90;;;;;;5053779;28;20443;-68
2022/05/17 00:11:49;;;;;;;5.30;2.92;;;17.40;99.90;;;;;;5054790;28;19962;-68
2022/05/17 00:14:17;;;;;;;4.88;2.72;;;17.40;99.90;;;;;;5053978;28;20028;-68
2022/05/17 00:16:43;;;;;;;6.40;3.60;;;17.30;99.90;;;;;;5054529;28;20128;-68
2022/05/17 00:19:11;;;;;;;6.07;3.50;;;17.30;99.90;;;;;;5054241;28;20381;-67
2022/05/17 00:21:37;;;;;;;10.20;4.03;;;17.30;99.90;;;;;;5055081;28;20017;-67
2022/05/17 00:24:04;;;;;;;9.55;3.50;;;17.30;99.90;;;;;;5054091;28;20104;-68
2022/05/17 00:26:31;;;;;;;6.32;3.80;;;17.20;99.90;;;;;;5053773;28;20033;-68
2022/05/17 00:28:56;;;;;;;7.53;3.70;;;17.20;99.90;;;;;;5053676;28;20033;-68
2022/05/17 00:31:22;;;;;;;10.80;3.80;;;17.10;99.90;;;;;;5053906;28;20549;-67
2022/05/17 00:33:48;;;;;;;6.72;3.58;;;17.10;99.90;;;;;;5052816;28;20132;-67
2022/05/17 00:36:14;;;;;;;;;;;17.00;99.90;;;;;;5054855;28;20017;-68
2022/05/17 00:38:39;;;;;;;5.35;3.40;;;17.00;99.90;;;;;;5053636;28;19928;-68
2022/05/17 00:41:05;;;;;;;5.53;3.13;;;16.90;99.90;;;;;;5052641;28;20329;-68
2022/05/17 00:44:42;;;;;;;6.37;3.47;;;16.90;99.90;;;;;;5054430;28;20090;-68
2022/05/17 00:46:25;;;;;;;7.50;3.72;;;17.00;99.90;;;;;;5053640;28;20256;-69
2022/05/17 00:48:52;;;;;;;8.10;3.72;;;16.90;99.90;;;;;;5058197;28;20032;-68
2022/05/17 00:51:18;;;;;;;8.45;3.80;;;16.90;99.90;;;;;;5055140;28;20032;-68
2022/05/17 00:53:45;;;;;;;8.60;3.65;;;16.90;99.90;;;;;;5052706;28;20032;-68
2022/05/17 00:56:16;;;;;;;9.88;3.80;;;16.90;99.90;;;;;;5054121;28;20502;-67
2022/05/17 00:58:46;;;;;;;6.13;4.25;;;16.90;99.90;;;;;;5053890;28;20017;-66
2022/05/17 01:01:15;;;;;;;6.72;3.13;;;16.80;99.90;;;;;;5053870;28;20048;-67
2022/05/17 01:03:57;;;;;;;4.65;3.20;;;16.80;99.90;;;;;;5053760;28;20057;-69
2022/05/17 01:06:27;;;;;;;6.90;3.33;;;16.80;99.90;;;;;;5053922;28;20106;-68
2022/05/17 01:08:53;;;;;;;5.57;3.83;;;16.80;99.90;;;;;;5051876;28;20025;-69
2022/05/17 01:11:19;;;;;;;9.27;3.47;;;16.80;99.90;;;;;;5053744;28;20036;-68
2022/05/17 01:16:29;;;;;;;7.38;3.70;;;16.80;99.90;;;;;;5056699;28;20116;-68
2022/05/17 01:18:56;;;;;;;;;;;16.70;99.90;;;;;;5058459;28;20020;-68
2022/05/17 01:21:22;;;;;;;7.43;3.30;;;16.70;99.90;;;;;;5057998;28;19995;-68
2022/05/17 01:23:48;;;;;;;5.47;3.63;;;16.70;99.90;;;;;;5057758;28;20049;-68
2022/05/17 01:26:20;;;;;;;6.63;3.63;;;16.60;99.90;;;;;;5055849;28;20469;-68
2022/05/17 01:28:46;;;;;;;5.07;3.85;;;16.60;99.90;;;;;;5056449;28;20094;-68
2022/05/17 01:31:11;;;;;;;7.20;4.03;;;16.60;99.90;;;;;;5057536;28;20029;-67
2022/05/17 01:33:38;;;;;;;6.20;3.55;;;16.50;99.90;;;;;;5057812;28;20082;-69
2022/05/17 01:36:07;;;;;;;9.82;4.18;;;16.50;99.90;;;;;;5058149;28;20479;-69
2022/05/17 01:38:34;;;;;;;5.80;3.83;;;16.70;99.90;;;;;;5056480;28;20060;-67
2022/05/17 01:41:00;;;;;;;8.15;4.25;;;16.60;99.90;;;;;;5055649;28;20036;-67
2022/05/17 01:43:26;;;;;;;6.65;3.20;;;16.50;99.90;;;;;;5056344;28;20020;-67
2022/05/17 01:45:52;;;;;;;6.68;3.25;;;16.40;99.90;;;;;;5056638;28;20037;-68
2022/05/17 01:48:17;;;;;;;6.40;3.30;;;16.40;99.90;;;;;;5055013;28;20025;-68
2022/05/17 01:50:44;;;;;;;7.25;3.40;;;16.40;99.90;;;;;;5056202;28;20386;-68
2022/05/17 01:53:10;;;;;;;6.80;3.33;;;16.40;99.90;;;;;;5055167;28;20029;-67
2022/05/17 01:55:35;;;;;;;6.43;2.95;;;16.40;99.90;;;;;;5056199;28;20021;-67
2022/05/17 01:58:01;;;;;;;6.47;3.47;;;16.40;99.90;;;;;;5056304;28;20032;-68
2022/05/17 02:00:27;;;;;;;11.43;4.53;;;16.30;99.90;;;;;;5056108;28;20031;-69
2022/05/17 02:02:52;;;;;;;5.97;3.90;;;16.40;99.90;;;;;;5056122;28;20426;-68
2022/05/17 02:05:20;;;;;;;9.55;3.97;;;16.30;99.90;;;;;;5056424;28;20033;-69
2022/05/17 02:07:46;;;;;;;6.90;3.33;;;16.20;99.90;;;;;;5055927;28;20120;-68
2022/05/17 02:10:12;;;;;;;5.82;3.25;;;16.20;99.90;;;;;;5056045;28;20063;-68
2022/05/17 02:12:38;;;;;;;8.13;3.83;;;16.20;99.90;;;;;;5056216;28;20341;-68
2022/05/17 02:15:06;;;;;;;7.30;3.17;;;16.20;99.90;;;;;;5056228;28;20135;-68
2022/05/17 02:17:32;;;;;;;5.30;3.67;;;16.10;99.90;;;;;;5056128;28;20021;-68
2022/05/17 02:19:59;;;;;;;9.07;4.00;;;16.10;99.90;;;;;;5055492;28;20044;-68
2022/05/17 02:22:25;;;;;;;8.40;3.65;;;16.10;99.90;;;;;;5055568;28;20025;-68
2022/05/17 02:24:51;;;;;;;4.65;3.40;;;16.00;99.90;;;;;;5054057;28;20033;-68
2022/05/17 02:27:16;;;;;;;6.15;3.83;;;16.00;99.90;;;;;;5053596;28;20036;-69
2022/05/17 02:29:43;;;;;;;7.57;3.70;;;16.00;99.90;;;;;;5055104;28;20110;-68
2022/05/17 02:32:09;;;;;;;9.65;3.42;;;15.90;99.90;;;;;;5055438;28;20029;-67
2022/05/17 02:34:36;;;;;;;7.93;3.40;;;15.90;99.90;;;;;;5054767;28;20025;-68
2022/05/17 02:37:04;;;;;;;7.75;3.60;;;15.80;99.90;;;;;;5053989;28;20025;-68
2022/05/17 02:39:30;;;;;;;5.38;3.47;;;15.80;99.90;;;;;;5055202;28;20483;-67
2022/05/17 02:41:56;;;;;;;5.30;3.78;;;15.80;99.90;;;;;;5055440;28;20021;-68
2022/05/17 02:44:21;;;;;;;5.93;3.33;;;15.80;99.90;;;;;;5055280;28;20078;-68
2022/05/17 02:46:47;;;;;;;5.65;3.25;;;15.80;99.90;;;;;;5055640;28;20393;-67
2022/05/17 02:49:13;;;;;;;7.35;3.55;;;16.00;99.90;;;;;;5053923;28;20044;-69
2022/05/17 02:51:38;;;;;;;6.18;3.45;;;16.20;99.90;;;;;;5053730;28;20021;-68
2022/05/17 02:54:06;;;;;;;6.83;3.80;;;16.30;99.90;;;;;;5054746;28;20043;-68
2022/05/17 02:56:32;;;;;;;5.45;3.72;;;16.40;99.90;;;;;;5054320;28;20354;-67
2022/05/17 02:58:58;;;;;;;4.53;3.03;;;16.30;99.90;;;;;;5055017;28;20024;-67
2022/05/17 03:01:23;;;;;;;6.93;3.67;;;16.30;99.90;;;;;;5054744;28;20017;-68
2022/05/17 03:03:49;;;;;;;5.07;3.22;;;16.20;99.90;;;;;;5053681;28;20051;-67
2022/05/17 03:06:14;;;;;;;6.00;3.13;;;16.10;99.90;;;;;;5054835;28;20021;-68
2022/05/17 03:08:40;;;;;;;7.32;3.65;;;16.10;99.90;;;;;;5053353;28;20029;-68
2022/05/17 03:11:06;;;;;;;6.35;4.35;;;16.00;99.90;;;;;;5054641;28;20032;-68
2022/05/17 03:13:32;;;;;;;4.95;3.65;;;16.00;99.90;;;;;;5053467;28;20082;-68
2022/05/17 03:15:58;;;;;;;7.68;3.85;;;16.00;99.90;;;;;;5054895;28;20017;-67
2022/05/17 03:18:24;;;;;;;6.80;3.15;;;15.90;99.90;;;;;;5054528;28;20025;-67
2022/05/17 03:20:50;;;;;;;6.60;3.33;;;15.80;99.90;;;;;;5054832;28;20499;-67
2022/05/17 03:23:16;;;;;;;6.88;3.33;;;15.80;99.90;;;;;;5053492;28;20255;-68
2022/05/17 03:25:41;;;;;;;7.85;3.80;;;15.70;99.90;;;;;;5054862;28;20489;-68
2022/05/17 03:28:09;;;;;;;10.25;6.88;;;15.80;99.90;;;;;;5054377;28;20029;-68
2022/05/17 03:30:35;;;;;;;8.80;4.80;;;15.80;99.90;;;;;;5054603;28;20029;-68
2022/05/17 03:33:00;;;;;;;5.50;3.33;;;15.80;99.90;;;;;;5054132;28;20048;-69
2022/05/17 03:35:26;;;;;;;4.80;3.30;;;15.80;99.90;;;;;;5054509;28;20040;-68
2022/05/17 03:37:52;;;;;;;5.95;3.22;;;15.70;99.90;;;;;;5052108;28;20059;-68
2022/05/17 03:40:18;;;;;;;7.20;3.47;;;15.70;99.90;;;;;;5052628;28;20108;-68
2022/05/17 03:42:44;;;;;;;;;;;15.60;99.90;;;;;;5053043;28;20291;-68
2022/05/17 03:45:10;;;;;;;13.65;8.65;;;15.60;99.90;;;;;;5053768;28;19927;-68
2022/05/17 03:47:36;;;;;;;;;;;15.60;99.90;;;;;;5054168;28;20040;-67
2022/05/17 03:50:03;;;;;;;7.15;3.35;;;15.70;99.90;;;;;;5053484;28;19916;-68
2022/05/17 03:52:31;;;;;;;6.13;3.53;;;15.90;99.90;;;;;;5052433;28;20029;-67
2022/05/17 03:54:58;;;;;;;8.80;3.95;;;16.00;99.90;;;;;;5053661;28;20051;-67
2022/05/17 03:57:28;;;;;;;8.02;5.75;;;15.90;99.90;;;;;;5053611;28;20025;-67
2022/05/17 03:59:54;;;;;;;8.85;4.28;;;15.80;99.90;;;;;;5052730;28;20040;-67
2022/05/17 04:02:21;;;;;;;6.32;3.80;;;15.70;99.90;;;;;;5052503;28;20032;-67
2022/05/17 04:04:50;;;;;;;6.30;3.45;;;15.70;99.90;;;;;;5052089;28;20056;-67
2022/05/17 04:07:16;;;;;;;6.47;3.50;;;15.60;99.90;;;;;;5052360;28;20025;-68
2022/05/17 04:09:42;;;;;;;6.35;3.78;;;15.60;99.90;;;;;;5053443;28;20049;-68
2022/05/17 04:12:08;;;;;;;6.75;3.38;;;15.60;99.90;;;;;;5053384;28;20443;-68
2022/05/17 04:14:34;;;;;;;5.22;3.38;;;15.70;99.90;;;;;;5051920;28;20025;-68
2022/05/17 04:16:59;;;;;;;6.50;3.28;;;15.70;99.90;;;;;;5053861;28;20391;-68
2022/05/17 04:19:25;;;;;;;5.43;3.00;;;15.70;99.90;;;;;;5054205;28;20070;-68
2022/05/17 04:21:50;;;;;;;11.68;7.45;;;15.70;99.90;;;;;;5055194;28;20025;-68
2022/05/17 04:24:16;;;;;;;20.88;11.80;;;15.80;99.90;;;;;;5053392;28;20029;-68
2022/05/17 04:26:42;;;;;;;15.73;7.53;;;15.80;99.90;;;;;;5053430;28;20108;-68
2022/05/17 04:29:08;;;;;;;10.23;4.63;;;15.80;99.90;;;;;;5052926;28;20060;-68
2022/05/17 04:31:34;;;;;;;;;;;15.90;99.90;;;;;;5053382;28;20390;-68
2022/05/17 04:34:00;;;;;;;5.63;3.70;;;15.90;99.90;;;;;;5052950;28;20011;-68
2022/05/17 04:36:26;;;;;;;4.90;3.20;;;15.90;99.90;;;;;;5053050;28;20102;-68
2022/05/17 04:38:52;;;;;;;5.15;3.22;;;15.90;99.90;;;;;;5053426;28;20444;-69
2022/05/17 04:41:18;;;;;;;5.80;3.30;;;15.90;99.90;;;;;;5052979;28;20028;-69
2022/05/17 04:43:44;;;;;;;6.27;3.00;;;16.00;99.90;;;;;;5053327;28;20024;-67
2022/05/17 04:46:10;;;;;;;6.03;4.05;;;15.90;99.90;;;;;;5053349;28;20263;-67
2022/05/17 04:48:36;;;;;;;9.50;3.47;;;16.00;99.90;;;;;;5052957;28;20021;-68
2022/05/17 04:51:06;;;;;;;;;;;16.10;99.90;;;;;;5053329;28;20031;-68
2022/05/17 04:53:31;;;;;;;5.80;3.22;;;16.10;99.90;;;;;;5052869;28;19935;-68
2022/05/17 04:55:57;;;;;;;6.77;4.00;;;16.10;99.90;;;;;;5053408;28;20033;-68
2022/05/17 04:58:23;;;;;;;5.90;3.90;;;16.20;99.90;;;;;;5053040;28;20270;-68
2022/05/17 05:00:49;;;;;;;8.32;3.55;;;16.20;99.90;;;;;;5053278;28;20336;-68
2022/05/17 05:03:15;;;;;;;8.83;6.77;;;16.30;99.90;;;;;;5052684;28;20438;-68
2022/05/17 05:05:40;;;;;;;5.88;3.85;;;16.40;99.90;;;;;;5056404;28;20029;-71
2022/05/17 05:08:06;;;;;;;7.18;3.00;;;16.50;99.90;;;;;;5053373;28;20037;-71
2022/05/17 05:10:32;;;;;;;8.15;3.35;;;16.50;99.90;;;;;;5052971;28;20115;-71
2022/05/17 05:12:57;;;;;;;6.18;3.60;;;16.60;99.90;;;;;;5054115;28;20029;-71
2022/05/17 05:15:24;;;;;;;7.47;3.20;;;16.70;99.90;;;;;;5052462;28;20026;-72
2022/05/17 05:17:50;;;;;;;6.22;3.72;;;16.70;99.90;;;;;;5052909;28;20025;-71
2022/05/17 05:20:16;;;;;;;10.10;6.65;;;16.80;99.90;;;;;;5053083;28;20103;-71
2022/05/17 05:22:42;;;;;;;11.93;4.95;;;16.90;99.90;;;;;;5053009;28;20036;-70
2022/05/17 05:25:08;;;;;;;5.20;3.58;;;17.00;99.90;;;;;;5051534;28;20333;-71
2022/05/17 05:27:36;;;;;;;5.65;3.33;;;17.30;99.90;;;;;;5051386;28;20059;-69
2022/05/17 05:30:05;;;;;;;6.95;3.92;;;17.30;99.90;;;;;;5051182;28;20072;-71
2022/05/17 05:32:30;;;;;;;8.57;3.40;;;17.30;99.90;;;;;;5052246;28;20586;-71
2022/05/17 05:34:56;;;;;;;5.63;3.33;;;17.40;99.90;;;;;;5053639;28;20033;-71
2022/05/17 05:37:22;;;;;;;7.07;3.45;;;17.50;99.90;;;;;;5053559;28;20098;-71
2022/05/17 05:39:47;;;;;;;5.78;3.50;;;17.60;99.90;;;;;;5051905;28;20021;-71
2022/05/17 05:42:13;;;;;;;7.93;3.80;;;17.70;99.90;;;;;;5052521;28;20025;-70
2022/05/17 05:44:39;;;;;;;7.03;3.55;;;17.70;99.90;;;;;;5053322;28;20104;-70
2022/05/17 05:47:04;;;;;;;6.00;3.85;;;17.90;99.90;;;;;;5052050;28;20029;-72
2022/05/17 05:49:30;;;;;;;9.00;3.67;;;18.30;99.90;;;;;;5049888;28;20119;-72
2022/05/17 05:51:56;;;;;;;5.75;3.63;;;18.30;99.90;;;;;;5052602;28;20033;-71
2022/05/17 05:54:21;;;;;;;6.15;4.15;;;18.40;99.90;;;;;;5045750;23;20042;-67
2022/05/17 05:56:47;;;;;;;6.55;3.60;;;18.50;99.90;;;;;;5012389;28;20034;-67
2022/05/17 05:59:12;;;;;;;7.68;3.83;;;18.40;99.90;;;;;;5012398;28;20365;-67
2022/05/17 06:01:39;;;;;;;7.55;3.70;;;18.40;99.90;;;;;;4996022;28;20067;-66
2022/05/17 06:04:05;;;;;;;8.18;4.65;;;18.40;99.90;;;;;;5015926;28;20026;-66
2022/05/17 06:06:31;;;;;;;;;;;18.40;99.90;;;;;;5016023;28;20369;-67
2022/05/17 06:08:56;;;;;;;7.60;3.70;;;18.40;99.90;;;;;;4998125;28;19923;-67
2022/05/17 06:11:22;;;;;;;5.25;3.60;;;18.50;99.90;;;;;;4998217;28;20033;-67
2022/05/17 06:13:48;;;;;;;9.15;4.00;;;18.50;99.90;;;;;;5015655;28;20034;-68
2022/05/17 06:16:14;;;;;;;5.72;3.80;;;18.70;99.90;;;;;;4999013;28;20025;-73
2022/05/17 06:18:39;;;;;;;7.15;3.28;;;18.80;99.90;;;;;;4998288;28;20105;-69
2022/05/17 06:21:05;;;;;;;7.03;3.33;;;18.80;99.90;;;;;;5016388;28;20022;-70
2022/05/17 06:23:32;;;;;;;12.02;4.75;;;18.90;99.90;;;;;;4997893;28;20208;-69
2022/05/17 06:25:58;;;;;;;11.05;3.85;;;18.90;99.90;;;;;;4997871;28;20026;-68
2022/05/17 06:28:24;;;;;;;6.95;3.40;;;18.90;99.90;;;;;;5015812;28;20036;-68
2022/05/17 06:30:50;;;;;;;7.55;4.13;;;18.90;99.90;;;;;;5015885;28;20392;-68
2022/05/17 06:33:16;;;;;;;6.05;3.95;;;19.00;99.90;;;;;;5016166;28;20034;-70
2022/05/17 06:35:43;;;;;;;6.55;3.50;;;19.10;99.90;;;;;;4997798;28;20424;-71
2022/05/17 06:38:09;;;;;;;11.60;3.80;;;19.10;99.90;;;;;;5015577;28;20050;-69
2022/05/17 06:40:36;;;;;;;9.18;3.70;;;19.10;99.90;;;;;;5015799;28;20377;-68
2022/05/17 06:43:01;;;;;;;6.80;3.95;;;19.20;99.90;;;;;;4997687;28;20131;-68
2022/05/17 06:45:27;;;;;;;7.10;4.05;;;19.30;99.90;;;;;;4997721;28;20125;-70
2022/05/17 06:47:53;;;;;;;7.18;3.58;;;19.30;99.90;;;;;;5015165;28;20093;-69
2022/05/17 06:50:19;;;;;;;7.63;3.65;;;19.50;99.90;;;;;;4998040;28;20029;-69
2022/05/17 06:52:44;;;;;;;5.70;3.50;;;19.70;99.90;;;;;;4997751;28;20026;-70
2022/05/17 06:55:11;;;;;;;10.77;6.30;;;19.80;99.90;;;;;;5015202;28;20044;-69
2022/05/17 06:57:37;;;;;;;6.90;3.78;;;19.90;99.90;;;;;;5015324;28;20017;-69
2022/05/17 07:00:05;;;;;;;6.70;3.60;;;20.10;99.90;;;;;;4997329;28;20029;-69
2022/05/17 07:02:32;;;;;;;6.70;3.97;;;20.20;99.90;;;;;;4997528;28;20029;-72
2022/05/17 07:04:59;;;;;;;7.28;3.60;;;20.20;99.90;;;;;;5014932;28;20121;-71
2022/05/17 07:07:26;;;;;;;9.63;3.80;;;20.20;99.90;;;;;;4997295;28;20113;-72
2022/05/17 07:15:20;;;;;;;11.88;4.10;;;20.70;99.90;;;;;;5014702;28;20136;-68
2022/05/17 07:17:47;;;;;;;5.93;4.07;;;21.00;99.90;;;;;;5015562;28;20443;-73
2022/05/17 07:20:13;;;;;;;8.93;3.78;;;21.30;99.90;;;;;;5001444;28;20385;-68
2022/05/17 07:22:38;;;;;;;8.00;4.03;;;21.70;99.90;;;;;;5016596;28;20037;-68
2022/05/17 07:25:04;;;;;;;;;;;22.00;99.90;;;;;;4997473;28;20030;-68
2022/05/17 07:27:29;;;;;;;7.65;3.65;;;22.30;99.90;;;;;;5014641;28;19995;-67
2022/05/17 07:29:55;;;;;;;;;;;22.60;99.90;;;;;;4997046;28;20033;-68
2022/05/17 07:32:20;;;;;;;7.05;3.80;;;22.90;99.90;;;;;;4997093;28;19945;-68
2022/05/17 07:34:47;;;;;;;;;;;23.20;99.90;;;;;;4996892;28;20078;-68
2022/05/17 07:37:13;;;;;;;7.03;3.38;;;23.40;99.90;;;;;;4996468;28;19963;-67
2022/05/17 07:39:38;;;;;;;;;;;23.50;99.90;;;;;;4997040;28;20022;-67
2022/05/17 07:42:06;;;;;;;6.20;3.65;;;23.60;99.90;;;;;;5014021;28;20270;-67
2022/05/17 07:44:32;;;;;;;9.93;4.40;;;23.50;99.90;;;;;;4996057;28;20038;-67
2022/05/17 07:46:58;;;;;;;7.70;4.45;;;23.80;99.90;;;;;;4996120;28;20026;-67
2022/05/17 07:49:24;;;;;;;;;;;23.90;99.50;;;;;;4996595;28;20021;-66
2022/05/17 07:51:50;;;;;;;9.45;3.63;;;24.10;99.30;;;;;;4995905;28;20371;-67
2022/05/17 07:54:15;;;;;;;;;;;24.20;98.80;;;;;;4996350;28;20038;-67
2022/05/17 07:56:41;;;;;;;10.48;7.60;;;24.40;99.00;;;;;;5013759;28;19905;-67
2022/05/17 07:59:06;;;;;;;;;;;24.60;98.20;;;;;;5014221;28;20033;-67
2022/05/17 08:01:32;;;;;;;7.93;3.33;;;24.50;97.20;;;;;;5013485;28;19932;-67
2022/05/17 08:03:58;;;;;;;7.65;3.80;;;24.70;96.90;;;;;;5013547;28;20033;-67
2022/05/17 08:06:24;;;;;;;6.68;3.85;;;25.10;96.20;;;;;;5013612;28;20112;-67
2022/05/17 08:08:49;;;;;;;;;;;25.20;95.90;;;;;;5014352;28;20065;-68
2022/05/17 08:11:15;;;;;;;5.75;2.97;;;25.20;96.00;;;;;;5013761;28;20430;-67
2022/05/17 08:13:41;;;;;;;7.25;4.20;;;25.40;96.10;;;;;;5013717;28;20029;-67
2022/05/17 08:16:06;;;;;;;8.10;4.95;;;25.70;95.40;;;;;;5013465;28;20105;-67
2022/05/17 08:18:32;;;;;;;5.57;3.33;;;26.00;94.70;;;;;;5013637;28;20025;-67
2022/05/17 08:20:58;;;;;;;8.45;3.45;;;26.00;94.20;;;;;;5013718;28;20077;-67
2022/05/17 08:23:24;;;;;;;6.35;3.53;;;26.30;93.70;;;;;;5013769;28;20022;-67
2022/05/17 08:28:33;;;;;;;4.75;2.80;;;26.70;93.50;;;;;;5014038;28;20041;-67
2022/05/17 08:30:59;;;;;;;7.97;2.75;;;27.30;92.60;;;;;;4995673;28;20025;-67
2022/05/17 08:33:26;;;;;;;4.45;3.08;;;27.60;91.50;;;;;;4995733;28;20113;-67
2022/05/17 08:36:00;;;;;;;4.63;2.95;;;28.10;90.90;;;;;;5013300;28;20030;-68
2022/05/17 08:38:38;;;;;;;5.13;2.97;;;27.80;90.40;;;;;;4995856;28;20022;-68
2022/05/17 08:41:12;;;;;;;4.63;2.88;;;28.10;90.40;;;;;;5013564;28;20100;-68
2022/05/17 08:43:43;;;;;;;3.70;2.22;;;28.50;90.00;;;;;;4996490;28;20499;-68
2022/05/17 08:46:29;;;;;;;4.60;2.75;;;29.00;86.20;;;;;;5013660;28;20022;-68
2022/05/17 08:48:57;;;;;;;4.40;2.78;;;29.70;84.10;;;;;;5013608;28;20025;-68
2022/05/17 08:51:41;;;;;;;5.38;2.72;;;30.80;82.20;;;;;;4995503;28;20500;-68
2022/05/17 08:54:10;;;;;;;3.35;2.53;;;31.90;77.40;;;;;;5013031;28;20578;-68
2022/05/17 08:56:41;;;;;;;5.93;2.90;;;32.50;75.10;;;;;;5013502;28;20047;-68
2022/05/17 08:59:12;;;;;;;4.82;2.55;;;33.30;72.60;;;;;;4995690;28;20037;-66
2022/05/17 09:02:06;;;;;;;4.30;2.05;;;33.80;68.80;;;;;;5013351;28;20030;-67
2022/05/17 09:04:49;;;;;;;4.78;2.20;;;34.30;67.20;;;;;;5002343;28;20179;-68
2022/05/17 09:07:24;;;;;;;3.70;2.30;;;34.50;63.90;;;;;;5013143;28;20026;-67
2022/05/17 09:10:10;;;;;;;5.72;2.88;;;34.20;63.70;;;;;;5013164;28;20026;-67
2022/05/17 09:13:00;;;;;;;5.15;2.53;;;33.50;64.60;;;;;;5013303;28;20026;-67
2022/05/17 09:15:27;;;;;;;4.63;2.47;;;33.50;63.20;;;;;;4996854;28;20037;-68
2022/05/17 09:17:53;;;;;;;4.82;2.28;;;32.20;65.20;;;;;;4996894;28;20026;-68
2022/05/17 09:20:25;;;;;;;5.28;2.65;;;32.30;65.20;;;;;;5014663;28;20026;-68
2022/05/17 09:22:50;;;;;;;3.63;2.45;;;33.20;64.70;;;;;;5014908;28;20018;-68
2022/05/17 09:25:25;;;;;;;6.18;2.28;;;33.10;63.30;;;;;;5014332;28;20500;-68
2022/05/17 09:27:52;;;;;;;3.85;2.53;;;32.80;63.70;;;;;;5014584;28;20034;-67
2022/05/17 09:30:23;;;;;;;4.10;2.40;;;32.40;63.90;;;;;;4996249;28;20026;-67
2022/05/17 09:33:14;;;;;;;3.67;2.33;;;32.50;63.70;;;;;;4998840;28;20045;-68
2022/05/17 09:35:52;;;;;;;4.60;2.50;;;33.90;62.60;;;;;;5016366;28;20018;-67
2022/05/17 09:38:19;;;;;;;4.43;2.38;;;34.80;60.80;;;;;;5018327;28;20479;-68
2022/05/17 09:40:48;;;;;;;4.57;2.17;;;35.10;59.90;;;;;;5017484;28;20034;-68
2022/05/17 09:43:16;;;;;;;5.95;2.25;;;35.00;59.50;;;;;;5017535;28;20042;-67
2022/05/17 09:45:58;;;;;;;4.68;2.20;;;35.10;58.80;;;;;;5000294;28;20026;-68
2022/05/17 09:54:31;;;;;;;5.50;2.40;;;34.30;58.80;;;;;;5016557;28;20404;-68
2022/05/17 09:57:17;;;;;;;4.43;2.50;;;34.40;58.30;;;;;;5016271;28;20024;-68
2022/05/17 09:59:44;;;;;;;6.97;2.20;;;33.50;59.10;;;;;;5016151;28;20052;-67
2022/05/17 10:02:28;;;;;;;3.50;2.45;;;34.00;59.30;;;;;;5016119;28;20026;-68
2022/05/17 10:05:11;;;;;;;5.53;2.10;;;34.00;58.20;;;;;;5015885;28;20530;-68
2022/05/17 10:07:38;;;;;;;5.43;2.30;;;34.80;58.10;;;;;;5015778;28;20026;-68
2022/05/17 10:10:09;;;;;;;5.68;2.22;;;35.70;56.10;;;;;;5015718;28;20030;-67
2022/05/17 10:12:37;;;;;;;7.28;2.67;;;36.70;55.30;;;;;;5015750;28;20029;-67
2022/05/17 10:15:10;;;;;;;4.00;2.50;;;36.90;55.10;;;;;;5015606;28;20365;-67
2022/05/17 10:17:43;;;;;;;4.95;2.10;;;37.50;54.00;;;;;;5016088;28;20030;-67
2022/05/17 10:20:23;;;;;;;2.78;2.10;;;37.90;53.00;;;;;;5016174;28;20384;-68
2022/05/17 10:23:14;;;;;;;3.70;2.00;;;38.60;52.80;;;;;;5016021;28;20018;-67
2022/05/17 10:25:53;;;;;;;6.45;2.30;;;36.60;53.80;;;;;;5015231;28;20109;-68
2022/05/17 10:28:30;;;;;;;4.78;2.65;;;35.30;55.40;;;;;;5015696;28;20028;-67
2022/05/17 10:31:34;;;;;;;3.67;2.53;;;35.80;54.60;;;;;;4997861;28;20018;-67
2022/05/17 10:34:18;;;;;;;5.63;2.47;;;35.00;54.90;;;;;;4920030;29;20024;-67
2022/05/17 10:36:47;;;;;;;8.00;2.40;;;35.40;54.90;;;;;;4993525;28;20121;-67
2022/05/17 10:39:24;;;;;;;5.90;2.72;;;35.10;54.50;;;;;;5015748;28;20184;-67
2022/05/17 10:41:50;;;;;;;5.10;2.20;;;35.00;54.40;;;;;;4997714;28;20503;-67
2022/05/17 10:44:19;;;;;;;2.70;2.10;;;35.00;54.00;;;;;;5015483;28;20030;-68
2022/05/17 10:46:52;;;;;;;8.07;2.22;;;34.90;54.10;;;;;;4998042;28;20108;-67
2022/05/17 10:49:54;;;;;;;4.93;2.30;;;34.70;54.60;;;;;;5015480;28;20018;-67
2022/05/17 10:52:34;;;;;;;2.10;1.88;;;34.80;54.50;;;;;;4997629;28;20022;-67
2022/05/17 10:55:30;;;;;;;5.05;2.00;;;35.40;54.10;;;;;;4997263;28;20088;-68
2022/05/17 10:58:20;;;;;;;2.78;2.20;;;36.30;52.70;;;;;;4997992;28;20155;-67
2022/05/17 11:00:54;;;;;;;3.38;1.70;;;35.90;52.90;;;;;;4997418;28;20400;-67
2022/05/17 11:03:47;;;;;;;3.10;2.08;;;35.30;52.60;;;;;;4997239;28;20033;-67
2022/05/17 11:06:19;;;;;;;4.72;2.05;;;34.60;53.40;;;;;;4997301;28;20049;-67
2022/05/17 11:09:21;;;;;;;5.32;2.17;;;34.20;54.00;;;;;;5014723;28;20109;-67
2022/05/17 11:12:04;;;;;;;2.95;2.20;;;32.90;54.60;;;;;;4996816;28;20037;-67
2022/05/17 11:14:51;;;;;;;3.45;2.20;;;30.90;57.40;;;;;;4997446;28;20026;-67
2022/05/17 11:17:54;;;;;;;3.28;2.20;;;30.40;58.00;;;;;;4997072;28;20022;-67
2022/05/17 11:20:39;;;;;;;3.47;2.00;;;30.00;58.50;;;;;;5014492;28;20033;-68
2022/05/17 11:23:11;;;;;;;6.00;1.90;;;29.20;58.70;;;;;;5014331;28;20041;-68
2022/05/17 11:25:44;;;;;;;5.03;2.10;;;28.90;59.70;;;;;;5014381;28;20101;-68
2022/05/17 11:28:38;;;;;;;7.05;2.28;;;28.60;59.60;;;;;;4996861;28;20090;-67
2022/05/17 11:31:11;;;;;;;4.25;1.85;;;27.80;62.80;;;;;;5014301;28;20391;-67
2022/05/17 11:33:39;;;;;;;2.80;2.03;;;27.40;62.90;;;;;;5014768;28;20050;-68
2022/05/17 11:36:07;;;;;;;5.00;1.80;;;27.10;63.70;;;;;;5014784;28;20041;-68
2022/05/17 11:38:35;;;;;;;3.92;1.90;;;26.40;64.70;;;;;;5014954;28;20041;-68
2022/05/17 11:41:04;;;;;;;3.42;2.20;;;26.40;65.20;;;;;;4996492;28;20057;-68
2022/05/17 11:43:44;;;;;;;6.88;4.68;;;26.60;65.60;;;;;;4996323;28;20022;-66
2022/05/17 11:46:28;;;;;;;8.18;5.07;;;26.80;65.50;;;;;;4996529;28;20440;-66
2022/05/17 11:48:56;;;;;;;4.43;2.60;;;26.80;67.90;;;;;;5013987;28;20025;-66
2022/05/17 11:51:31;;;;;;;5.30;2.63;;;26.80;64.80;;;;;;4996313;28;20090;-66
2022/05/17 11:53:57;;;;;;;5.70;2.55;;;26.70;64.10;;;;;;4996452;28;20045;-66
2022/05/17 11:56:25;;;;;;;10.02;2.47;;;26.80;65.00;;;;;;5013981;28;20029;-66
2022/05/17 11:58:53;;;;;;;11.05;3.97;;;26.70;65.10;;;;;;5013036;28;20097;-66
2022/05/17 12:01:35;;;;;;;6.65;3.40;;;26.70;66.40;;;;;;5013984;28;20329;-66
2022/05/17 12:04:22;;;;;;;6.22;2.00;;;26.70;66.10;;;;;;4996498;28;20029;-66
2022/05/17 12:06:56;;;;;;;4.13;1.85;;;26.70;65.70;;;;;;5014235;28;20026;-66
2022/05/17 12:09:29;;;;;;;3.58;1.88;;;26.60;65.90;;;;;;5013707;28;20028;-67
2022/05/17 12:12:00;;;;;;;5.30;2.85;;;26.60;66.10;;;;;;4995887;28;20025;-67
2022/05/17 12:14:34;;;;;;;5.00;2.65;;;26.60;68.60;;;;;;5013567;28;20037;-66
2022/05/17 12:17:07;;;;;;;5.90;2.53;;;26.50;67.40;;;;;;5015095;28;20117;-65
2022/05/17 12:19:44;;;;;;;2.70;2.00;;;26.70;66.80;;;;;;5013808;28;20091;-65
2022/05/17 12:22:21;;;;;;;4.63;2.10;;;26.60;67.40;;;;;;5014004;28;20026;-65
2022/05/17 12:25:03;;;;;;;4.95;2.35;;;26.70;67.50;;;;;;5013607;28;20056;-65
2022/05/17 12:27:31;;;;;;;4.10;1.98;;;26.60;67.80;;;;;;5013809;28;20029;-64
2022/05/17 12:33:07;;;;;;;6.68;2.13;;;26.40;66.60;;;;;;5013228;28;20037;-65
2022/05/17 12:35:33;;;;;;;8.65;1.92;;;26.30;67.70;;;;;;5013531;28;20103;-65
2022/05/17 12:37:58;;;;;;;;;;;26.30;67.20;;;;;;5013304;28;20440;-65
2022/05/17 12:43:22;;;;;;;2.53;1.75;;;26.30;66.70;;;;;;5013298;28;20121;-65
2022/05/17 12:45:49;;;;;;;3.92;1.85;;;26.30;66.60;;;;;;5012880;28;20080;-65
2022/05/17 12:48:29;;;;;;;6.57;2.90;;;26.30;66.60;;;;;;5013042;28;20500;-66
2022/05/17 12:50:59;;;;;;;3.80;2.40;;;26.40;67.20;;;;;;5012940;28;20022;-67
2022/05/17 12:53:48;;;;;;;3.90;1.83;;;26.40;66.70;;;;;;5012660;28;20026;-66
2022/05/17 12:56:20;;;;;;;5.75;1.58;;;26.50;65.60;;;;;;4994229;28;20099;-66
2022/05/17 12:58:54;;;;;;;4.05;1.50;;;26.70;64.40;;;;;;4994856;28;20089;-66
2022/05/17 13:01:29;;;;;;;4.45;1.90;;;26.70;65.00;;;;;;5012996;28;20492;-66
2022/05/17 13:03:59;;;;;;;4.32;1.92;;;26.70;65.40;;;;;;4995314;28;20026;-67
2022/05/17 13:06:41;;;;;;;3.03;1.75;;;26.70;65.40;;;;;;4995108;28;20017;-68
2022/05/17 13:09:19;;;;;;;3.75;2.00;;;26.70;65.30;;;;;;4995138;28;20152;-68
2022/05/17 13:11:45;;;;;;;7.63;2.17;;;26.60;65.40;;;;;;5015880;28;20032;-68
2022/05/17 13:14:18;;;;;;;;;;;26.40;65.10;;;;;;4999537;28;20026;-69
2022/05/17 13:16:45;;;;;;;4.93;1.88;;;26.40;65.40;;;;;;5000573;28;19906;-68
2022/05/17 13:19:17;;;;;;;6.03;1.60;;;26.40;64.80;;;;;;5017869;28;20044;-68
2022/05/17 13:21:48;;;;;;;3.75;1.50;;;26.40;64.60;;;;;;5016448;28;20026;-68
2022/05/17 13:24:27;;;;;;;2.75;1.52;;;26.40;64.70;;;;;;5016921;28;20084;-68
2022/05/17 13:26:58;;;;;;;3.67;1.73;;;26.40;64.80;;;;;;5016792;28;20026;-68